Time;durP1;ratioP1;P1;durP2;ratioP2;P2;SDS_P1;SDS_P2;PMS_P1;PMS_P2;Temp;Humidity;BMP_temperature;BMP_pressure;BME280_temperature;BME280_humidity;BME280_pressure;Samples;Min_cycle;Max_cycle;Signal;HPM_P1;HPM_P2
2024/04/14 00:01:49;;;;;;;7.47;3.10;;;12.00;99.90;;;;;;5473522;26;20002;-84
2024/04/14 00:04:15;;;;;;;6.13;3.55;;;12.00;99.90;;;;;;5474503;26;19998;-84
2024/04/14 00:06:40;;;;;;;6.65;2.97;;;12.00;99.90;;;;;;5473009;26;20101;-84
2024/04/14 00:09:06;;;;;;;6.03;2.92;;;12.00;99.90;;;;;;5441330;26;19990;-84
2024/04/14 00:11:31;;;;;;;7.68;3.22;;;12.00;99.90;;;;;;5475636;26;19995;-84
2024/04/14 00:13:57;;;;;;;7.55;3.10;;;12.00;99.90;;;;;;5473755;26;20006;-84
2024/04/14 00:16:22;;;;;;;5.50;2.83;;;12.00;99.90;;;;;;5474093;26;20022;-84
2024/04/14 00:18:48;;;;;;;7.50;3.20;;;12.00;99.90;;;;;;5474510;26;20941;-84
2024/04/14 00:21:14;;;;;;;7.88;2.58;;;12.00;99.90;;;;;;5441354;26;19994;-84
2024/04/14 00:23:39;;;;;;;4.78;3.28;;;11.90;99.90;;;;;;5473906;26;20002;-84
2024/04/14 00:26:08;;;;;;;8.68;3.92;;;11.90;99.90;;;;;;5442981;26;20450;-84
2024/04/14 00:28:34;;;;;;;6.35;3.17;;;11.90;99.90;;;;;;5473668;26;20034;-84
2024/04/14 00:30:59;;;;;;;7.30;3.53;;;11.90;99.90;;;;;;5474394;26;20001;-84
2024/04/14 00:33:25;;;;;;;7.30;3.15;;;11.80;99.90;;;;;;5474112;26;20022;-85
2024/04/14 00:35:50;;;;;;;7.32;3.30;;;11.80;99.90;;;;;;5474419;26;20367;-84
2024/04/14 00:38:16;;;;;;;8.55;3.40;;;11.70;99.90;;;;;;5474593;26;20358;-84
2024/04/14 00:40:42;;;;;;;9.10;2.95;;;11.80;99.90;;;;;;5474150;26;20059;-84
2024/04/14 00:43:14;;;;;;;8.18;3.35;;;11.80;99.90;;;;;;5472372;26;20046;-84
2024/04/14 00:45:39;;;;;;;5.43;3.07;;;11.80;99.90;;;;;;5440065;26;20173;-84
2024/04/14 00:48:06;;;;;;;5.28;2.70;;;11.70;99.90;;;;;;5473816;26;20005;-84
2024/04/14 00:50:32;;;;;;;6.20;3.40;;;11.70;99.90;;;;;;5474119;26;20002;-84
2024/04/14 00:52:58;;;;;;;6.68;3.20;;;11.70;99.90;;;;;;5474440;26;20020;-84
2024/04/14 00:55:24;;;;;;;9.80;3.58;;;11.60;99.90;;;;;;5474304;26;20010;-84
2024/04/14 00:57:50;;;;;;;4.97;3.10;;;11.60;99.90;;;;;;5473881;26;19990;-84
2024/04/14 01:00:16;;;;;;;5.23;3.13;;;11.50;99.90;;;;;;5474051;26;20014;-84
2024/04/14 01:02:43;;;;;;;7.33;3.53;;;11.50;99.90;;;;;;5442471;26;19994;-84
2024/04/14 01:05:08;;;;;;;6.40;2.90;;;11.50;99.90;;;;;;5473005;26;20018;-84
2024/04/14 01:07:35;;;;;;;7.30;2.97;;;11.40;99.90;;;;;;5472398;26;20007;-84
2024/04/14 01:10:00;;;;;;;7.45;3.33;;;11.30;99.90;;;;;;5498700;26;20826;-84
2024/04/14 01:12:26;;;;;;;6.40;3.37;;;11.30;99.90;;;;;;5473384;26;20005;-84
2024/04/14 01:14:51;;;;;;;5.67;3.00;;;11.30;99.90;;;;;;5472319;26;20013;-84
2024/04/14 01:17:18;;;;;;;6.23;3.47;;;11.20;99.90;;;;;;5472669;26;21814;-84
2024/04/14 01:19:43;;;;;;;9.37;3.43;;;11.20;99.90;;;;;;5473040;26;20002;-84
2024/04/14 01:22:09;;;;;;;6.60;2.90;;;11.10;99.90;;;;;;5472861;26;19994;-84
2024/04/14 01:24:34;;;;;;;6.27;3.20;;;11.20;99.90;;;;;;5475453;26;20006;-84
2024/04/14 01:27:01;;;;;;;5.57;3.20;;;11.20;99.90;;;;;;5476251;26;20101;-84
2024/04/14 01:29:27;;;;;;;6.43;3.57;;;11.10;99.90;;;;;;5480300;26;20007;-84
2024/04/14 01:31:52;;;;;;;6.90;3.33;;;11.10;99.90;;;;;;5474455;26;19998;-84
2024/04/14 01:34:19;;;;;;;5.90;3.20;;;11.10;99.90;;;;;;5440880;26;20009;-85
2024/04/14 01:36:45;;;;;;;8.47;3.60;;;11.00;99.90;;;;;;5472803;26;20120;-85
2024/04/14 01:39:11;;;;;;;10.83;3.77;;;10.90;99.90;;;;;;5473167;26;19998;-84
2024/04/14 01:41:36;;;;;;;5.73;3.00;;;10.90;99.90;;;;;;5442125;26;20010;-84
2024/04/14 01:44:02;;;;;;;10.17;3.83;;;10.90;99.90;;;;;;5473963;26;20002;-84
2024/04/14 01:46:28;;;;;;;5.77;3.00;;;10.80;99.90;;;;;;5473418;26;20032;-84
2024/04/14 01:48:53;;;;;;;6.30;3.30;;;10.80;99.90;;;;;;5473731;26;20423;-84
2024/04/14 01:51:19;;;;;;;8.03;3.77;;;10.80;99.90;;;;;;5473635;26;20479;-84
2024/04/14 01:53:44;;;;;;;7.60;3.05;;;10.70;99.90;;;;;;5442034;26;20044;-84
2024/04/14 01:56:10;;;;;;;5.67;3.30;;;10.60;99.90;;;;;;5472101;26;20021;-84
2024/04/14 01:58:35;;;;;;;7.87;3.40;;;10.60;99.90;;;;;;5472579;26;20005;-84
2024/04/14 02:01:01;;;;;;;5.93;3.27;;;10.60;99.90;;;;;;5441067;26;20020;-85
2024/04/14 02:03:26;;;;;;;8.73;3.60;;;10.60;99.90;;;;;;5441060;26;20025;-84
2024/04/14 02:05:58;;;;;;;9.40;3.67;;;10.60;99.90;;;;;;5472627;26;20005;-84
2024/04/14 02:08:24;;;;;;;8.53;4.00;;;10.50;99.90;;;;;;5471437;26;19995;-84
2024/04/14 02:10:50;;;;;;;11.27;3.53;;;10.50;99.90;;;;;;5471269;26;20002;-84
2024/04/14 02:13:16;;;;;;;7.50;3.57;;;10.50;99.90;;;;;;5473623;26;19998;-84
2024/04/14 02:15:42;;;;;;;7.27;3.50;;;10.50;99.90;;;;;;5439184;26;20006;-84
2024/04/14 02:18:08;;;;;;;8.10;3.07;;;10.50;99.90;;;;;;5473237;26;20457;-85
2024/04/14 02:20:34;;;;;;;9.67;3.13;;;10.50;99.90;;;;;;5471304;26;20052;-84
2024/04/14 02:23:01;;;;;;;5.23;3.03;;;10.50;99.90;;;;;;5472926;26;20055;-84
2024/04/14 02:25:26;;;;;;;5.97;3.13;;;10.40;99.90;;;;;;5472814;26;20006;-84
2024/04/14 02:27:53;;;;;;;8.97;3.40;;;10.50;99.90;;;;;;5472246;26;21089;-84
2024/04/14 02:30:18;;;;;;;5.30;3.17;;;10.50;99.90;;;;;;5473631;26;20007;-85
2024/04/14 02:32:44;;;;;;;5.20;2.90;;;10.50;99.90;;;;;;5441589;26;20027;-85
2024/04/14 02:35:09;;;;;;;7.23;3.40;;;10.50;99.90;;;;;;5472743;26;20038;-84
2024/04/14 02:37:35;;;;;;;5.27;2.90;;;10.50;99.90;;;;;;5471219;26;20184;-84
2024/04/14 02:40:01;;;;;;;3.80;2.60;;;10.50;99.90;;;;;;5496521;26;20038;-84
2024/04/14 02:42:31;;;;;;;4.87;2.87;;;10.50;99.90;;;;;;5442325;26;21763;-84
2024/04/14 02:44:58;;;;;;;7.33;3.20;;;10.50;99.90;;;;;;5474943;26;20009;-85
2024/04/14 02:47:24;;;;;;;5.23;3.00;;;10.50;99.90;;;;;;5472336;26;19998;-85
2024/04/14 02:49:50;;;;;;;4.63;2.80;;;10.50;99.90;;;;;;5472191;26;20009;-84
2024/04/14 02:52:15;;;;;;;5.67;2.90;;;10.50;99.90;;;;;;5471113;26;20166;-84
2024/04/14 02:54:41;;;;;;;5.30;3.07;;;10.50;99.90;;;;;;5470500;26;20012;-85
2024/04/14 02:57:06;;;;;;;5.97;2.53;;;10.50;99.90;;;;;;5471013;26;19998;-84
2024/04/14 02:59:35;;;;;;;5.93;2.90;;;10.50;99.90;;;;;;5472237;26;20013;-84
2024/04/14 03:02:00;;;;;;;5.70;2.80;;;10.50;99.90;;;;;;5472088;26;20014;-84
2024/04/14 03:04:26;;;;;;;8.40;3.20;;;10.50;99.90;;;;;;5439209;26;19999;-85
2024/04/14 03:06:56;;;;;;;5.63;3.10;;;10.50;99.90;;;;;;5471976;26;20001;-84
2024/04/14 03:09:22;;;;;;;6.83;2.40;;;10.40;99.90;;;;;;5471975;26;20008;-84
2024/04/14 03:11:47;;;;;;;8.27;3.27;;;10.40;99.90;;;;;;5471708;26;21815;-84
2024/04/14 03:14:13;;;;;;;8.27;3.10;;;10.40;99.90;;;;;;5472147;26;20017;-84
2024/04/14 03:16:38;;;;;;;5.83;2.73;;;10.40;99.90;;;;;;5471151;26;19999;-84
2024/04/14 03:19:04;;;;;;;6.13;2.60;;;10.30;99.90;;;;;;5472850;26;19994;-85
2024/04/14 03:21:29;;;;;;;10.90;3.70;;;10.30;99.90;;;;;;5439414;26;20002;-84
2024/04/14 03:23:55;;;;;;;5.93;2.80;;;10.30;99.90;;;;;;5441057;26;20018;-84
2024/04/14 03:26:20;;;;;;;4.87;2.77;;;10.20;99.90;;;;;;5470545;26;20002;-84
2024/04/14 03:28:46;;;;;;;4.70;2.53;;;10.30;99.90;;;;;;5439483;26;20002;-84
2024/04/14 03:31:11;;;;;;;5.80;2.70;;;10.20;99.90;;;;;;5471464;26;20023;-84
2024/04/14 03:33:37;;;;;;;3.80;2.40;;;10.20;99.90;;;;;;5471470;26;20324;-84
2024/04/14 03:36:07;;;;;;;6.13;2.80;;;10.20;99.90;;;;;;5437971;26;20009;-84
2024/04/14 03:38:33;;;;;;;8.53;2.80;;;10.20;99.90;;;;;;5470976;26;20405;-84
2024/04/14 03:40:59;;;;;;;6.33;2.80;;;10.20;99.90;;;;;;5472313;26;20006;-83
2024/04/14 03:43:25;;;;;;;5.00;2.30;;;10.20;99.90;;;;;;5471266;26;20005;-85
2024/04/14 03:45:51;;;;;;;3.57;2.27;;;10.20;99.90;;;;;;5468016;26;20013;-84
2024/04/14 03:48:16;;;;;;;4.40;2.80;;;10.20;99.90;;;;;;5472999;26;20022;-84
2024/04/14 03:50:42;;;;;;;7.60;2.57;;;10.20;99.90;;;;;;5470542;26;20063;-84
2024/04/14 03:53:09;;;;;;;5.00;2.77;;;10.10;99.90;;;;;;5470852;26;20017;-84
2024/04/14 03:55:35;;;;;;;3.73;2.33;;;10.10;99.90;;;;;;5470075;26;20091;-84
2024/04/14 03:58:00;;;;;;;6.97;2.57;;;10.10;99.90;;;;;;5472072;26;19999;-84
2024/04/14 04:00:27;;;;;;;5.23;2.73;;;10.10;99.90;;;;;;5471256;26;20006;-84
2024/04/14 04:02:53;;;;;;;4.23;2.73;;;10.00;99.90;;;;;;5471146;26;20006;-84
2024/04/14 04:05:19;;;;;;;5.53;2.70;;;10.00;99.90;;;;;;5470141;26;20117;-85
2024/04/14 04:07:48;;;;;;;4.37;2.70;;;10.00;99.90;;;;;;5469908;26;20017;-84
2024/04/14 04:10:14;;;;;;;5.37;2.80;;;9.90;99.90;;;;;;5470323;26;20009;-83
2024/04/14 04:12:39;;;;;;;7.03;2.87;;;9.90;99.90;;;;;;5470332;26;20039;-84
2024/04/14 04:15:05;;;;;;;6.07;3.10;;;9.90;99.90;;;;;;5471300;26;20005;-85
2024/04/14 04:17:31;;;;;;;7.17;2.77;;;9.80;99.90;;;;;;5473416;26;20553;-84
2024/04/14 04:19:56;;;;;;;8.07;3.07;;;9.80;99.90;;;;;;5474036;26;20334;-84
2024/04/14 04:22:22;;;;;;;6.17;2.70;;;9.80;99.90;;;;;;5473157;26;20006;-84
2024/04/14 04:24:47;;;;;;;8.10;3.20;;;9.80;99.90;;;;;;5473505;26;19998;-84
2024/04/14 04:27:13;;;;;;;4.70;2.90;;;9.80;99.90;;;;;;5475516;26;19998;-84
2024/04/14 04:29:38;;;;;;;7.47;4.67;;;9.80;99.90;;;;;;5472026;26;19998;-84
2024/04/14 04:32:04;;;;;;;7.97;5.90;;;9.70;99.90;;;;;;5474092;26;20006;-84
2024/04/14 04:34:30;;;;;;;8.73;6.13;;;9.70;99.90;;;;;;5473245;26;20010;-85
2024/04/14 04:36:55;;;;;;;8.70;5.23;;;9.70;99.90;;;;;;5472695;26;19999;-84
2024/04/14 04:39:21;;;;;;;9.97;5.60;;;9.70;99.90;;;;;;5474358;26;20071;-84
2024/04/14 04:41:47;;;;;;;8.23;4.93;;;9.60;99.90;;;;;;5440154;26;20006;-84
2024/04/14 04:44:12;;;;;;;5.67;3.80;;;9.60;99.90;;;;;;5472933;26;19998;-84
2024/04/14 04:46:38;;;;;;;4.90;2.60;;;9.50;99.90;;;;;;5441329;26;20021;-84
2024/04/14 04:49:03;;;;;;;6.23;3.40;;;9.60;99.90;;;;;;5473040;26;20045;-84
2024/04/14 04:51:30;;;;;;;4.20;2.67;;;9.50;99.90;;;;;;5474085;26;20006;-84
2024/04/14 04:53:55;;;;;;;7.20;2.73;;;9.50;99.90;;;;;;5476182;26;20741;-84
2024/04/14 04:56:21;;;;;;;6.63;2.77;;;9.50;99.90;;;;;;5443682;26;20014;-84
2024/04/14 04:58:47;;;;;;;5.63;2.40;;;9.50;99.90;;;;;;5476883;26;20789;-84
2024/04/14 05:01:12;;;;;;;6.20;2.40;;;9.50;99.90;;;;;;5473406;26;20010;-84
2024/04/14 05:03:38;;;;;;;3.80;2.60;;;9.50;99.90;;;;;;5475410;26;20021;-85
2024/04/14 05:06:05;;;;;;;5.27;2.30;;;9.60;99.90;;;;;;5441321;26;19994;-83
2024/04/14 05:08:32;;;;;;;7.03;2.57;;;9.60;99.90;;;;;;5471718;26;20022;-83
2024/04/14 05:10:59;;;;;;;4.87;2.27;;;9.60;99.90;;;;;;5473384;26;20012;-84
2024/04/14 05:13:26;;;;;;;4.20;2.43;;;9.70;99.90;;;;;;5474750;26;20108;-85
2024/04/14 05:15:51;;;;;;;5.00;2.40;;;9.80;99.90;;;;;;5442464;26;20009;-84
2024/04/14 05:18:17;;;;;;;6.37;2.23;;;9.90;99.90;;;;;;5471110;26;20009;-84
2024/04/14 05:20:43;;;;;;;5.07;2.40;;;10.00;99.90;;;;;;5473165;26;20014;-85
2024/04/14 05:23:09;;;;;;;6.80;2.63;;;10.10;99.90;;;;;;5470255;26;20002;-84
2024/04/14 05:25:36;;;;;;;4.97;1.80;;;10.20;99.90;;;;;;5468926;26;19994;-84
2024/04/14 05:28:02;;;;;;;3.77;2.03;;;10.30;99.90;;;;;;5471344;26;20014;-84
2024/04/14 05:30:28;;;;;;;6.07;2.40;;;10.40;99.90;;;;;;5435312;26;20053;-85
2024/04/14 05:32:56;;;;;;;4.10;1.93;;;10.60;99.90;;;;;;5468906;26;20666;-84
2024/04/14 05:35:22;;;;;;;4.27;1.97;;;10.70;99.90;;;;;;5468420;26;20211;-82
2024/04/14 05:37:48;;;;;;;3.47;1.93;;;10.80;99.90;;;;;;5471498;26;19990;-84
2024/04/14 05:40:13;;;;;;;4.00;2.13;;;11.00;99.90;;;;;;5471816;26;20037;-84
2024/04/14 05:42:39;;;;;;;5.03;2.03;;;11.10;99.90;;;;;;5473672;26;20082;-85
2024/04/14 05:45:07;;;;;;;4.87;2.43;;;11.30;99.90;;;;;;5473224;26;20009;-84
2024/04/14 05:47:33;;;;;;;3.37;1.70;;;11.50;99.90;;;;;;5472258;26;20017;-84
2024/04/14 05:49:59;;;;;;;5.50;2.37;;;11.60;99.90;;;;;;5472892;26;20006;-84
2024/04/14 05:52:24;;;;;;;7.60;1.93;;;11.70;99.90;;;;;;5474256;26;20010;-85
2024/04/14 05:54:50;;;;;;;4.05;1.85;;;11.90;99.90;;;;;;5474561;26;20010;-85
2024/04/14 05:57:16;;;;;;;4.65;1.75;;;12.00;99.90;;;;;;5441611;26;20714;-84
2024/04/14 05:59:44;;;;;;;5.55;1.63;;;12.10;99.90;;;;;;5471432;26;20013;-86
2024/04/14 06:02:10;;;;;;;3.00;1.58;;;12.20;99.90;;;;;;5471087;26;20001;-85
2024/04/14 06:04:36;;;;;;;3.45;1.90;;;12.30;99.90;;;;;;5475244;26;20007;-85
2024/04/14 06:07:01;;;;;;;5.43;1.90;;;12.40;99.90;;;;;;5468812;26;20002;-84
2024/04/14 06:09:27;;;;;;;5.53;1.80;;;12.50;99.90;;;;;;5467379;26;20008;-81
2024/04/14 06:11:53;;;;;;;5.13;1.88;;;12.60;99.90;;;;;;5470619;26;20013;-81
2024/04/14 06:14:22;;;;;;;5.75;1.73;;;12.70;99.90;;;;;;5437364;26;20010;-85
2024/04/14 06:16:48;;;;;;;5.00;2.30;;;12.80;99.90;;;;;;5469705;26;20005;-85
2024/04/14 06:19:14;;;;;;;3.45;1.50;;;13.00;99.90;;;;;;5468269;26;20002;-84
2024/04/14 06:21:40;;;;;;;3.58;1.50;;;13.10;99.90;;;;;;5463011;26;20014;-82
2024/04/14 06:24:05;;;;;;;4.45;1.60;;;13.30;99.90;;;;;;5470747;26;20043;-82
2024/04/14 06:26:31;;;;;;;4.18;1.90;;;13.40;99.90;;;;;;5470494;26;20006;-82
2024/04/14 06:28:57;;;;;;;6.68;1.73;;;13.60;99.90;;;;;;5472578;26;20002;-83
2024/04/14 06:31:23;;;;;;;4.82;1.60;;;13.80;99.90;;;;;;5472740;26;19991;-82
2024/04/14 06:33:49;;;;;;;4.10;1.88;;;14.00;99.90;;;;;;5468180;26;20051;-83
2024/04/14 06:36:14;;;;;;;5.00;1.52;;;14.20;99.90;;;;;;5470969;26;20002;-83
2024/04/14 06:38:44;;;;;;;2.97;1.55;;;14.40;99.90;;;;;;5469894;26;19999;-83
2024/04/14 06:41:12;;;;;;;5.65;1.60;;;14.60;99.90;;;;;;5470697;26;20877;-82
2024/04/14 06:43:38;;;;;;;6.50;1.65;;;14.80;99.90;;;;;;5440191;26;20010;-84
2024/04/14 06:46:04;;;;;;;5.95;1.67;;;15.00;99.90;;;;;;5439127;26;20104;-83
2024/04/14 06:48:29;;;;;;;5.15;1.65;;;15.10;99.90;;;;;;5472898;26;20093;-84
2024/04/14 06:50:55;;;;;;;4.40;2.00;;;15.30;99.90;;;;;;5469851;26;20038;-83
2024/04/14 06:53:21;;;;;;;7.13;1.83;;;15.50;99.90;;;;;;5468877;26;21769;-83
2024/04/14 06:55:47;;;;;;;2.88;1.65;;;15.70;99.90;;;;;;5467957;26;20006;-82
2024/04/14 06:58:13;;;;;;;4.65;1.80;;;15.80;99.90;;;;;;5471927;26;20268;-81
2024/04/14 07:00:39;;;;;;;5.50;1.88;;;16.00;99.90;;;;;;5467952;26;20097;-82
2024/04/14 07:03:05;;;;;;;5.25;1.65;;;16.20;99.90;;;;;;5471480;26;20038;-83
2024/04/14 07:05:30;;;;;;;4.45;1.90;;;16.30;99.90;;;;;;5471445;26;20016;-82
2024/04/14 07:07:56;;;;;;;4.45;1.58;;;16.50;99.90;;;;;;5470300;26;19998;-82
2024/04/14 07:10:23;;;;;;;4.35;1.60;;;16.70;99.90;;;;;;5471908;26;20022;-84
2024/04/14 07:12:48;;;;;;;3.63;1.48;;;16.80;99.90;;;;;;5471185;26;20010;-83
2024/04/14 07:15:14;;;;;;;4.88;1.75;;;17.00;99.90;;;;;;5473234;26;20006;-82
2024/04/14 07:17:39;;;;;;;6.00;2.20;;;17.10;99.90;;;;;;5475879;26;20456;-83
2024/04/14 07:20:05;;;;;;;5.18;1.77;;;17.30;99.90;;;;;;5473672;26;19998;-84
2024/04/14 07:22:31;;;;;;;3.92;1.55;;;17.50;99.90;;;;;;5470284;26;20042;-82
2024/04/14 07:24:59;;;;;;;7.03;1.60;;;17.60;99.90;;;;;;5468053;26;20001;-84
2024/04/14 07:27:26;;;;;;;4.88;1.58;;;17.80;99.90;;;;;;5465848;26;20017;-84
2024/04/14 07:29:51;;;;;;;2.45;1.45;;;17.90;99.90;;;;;;5466856;26;19999;-80
2024/04/14 07:32:17;;;;;;;5.20;1.55;;;18.10;99.90;;;;;;5468555;26;20742;-84
2024/04/14 07:34:42;;;;;;;3.17;1.40;;;18.20;99.90;;;;;;5468756;26;20017;-83
2024/04/14 07:37:08;;;;;;;5.63;1.42;;;18.30;99.90;;;;;;5466641;26;20053;-83
2024/04/14 07:39:34;;;;;;;5.70;1.63;;;18.50;99.90;;;;;;5466894;26;20041;-83
2024/04/14 07:42:03;;;;;;;4.57;1.85;;;18.60;99.90;;;;;;5466339;26;20010;-86
2024/04/14 07:44:29;;;;;;;4.07;1.65;;;18.70;99.90;;;;;;5462727;26;21683;-86
2024/04/14 07:46:55;;;;;;;3.28;1.70;;;18.90;99.90;;;;;;5464784;26;20006;-89
2024/04/14 07:49:20;;;;;;;3.10;1.40;;;19.00;99.90;;;;;;5468779;26;20027;-88
2024/04/14 07:51:46;;;;;;;3.72;1.70;;;19.10;99.90;;;;;;5469640;26;20017;-74
2024/04/14 07:54:11;;;;;;;3.95;1.35;;;19.20;99.90;;;;;;5463711;26;20087;-74
2024/04/14 07:56:37;;;;;;;3.13;1.60;;;19.30;99.90;;;;;;5463258;26;20030;-79
2024/04/14 07:59:04;;;;;;;3.42;1.58;;;19.50;99.90;;;;;;5463869;26;19994;-74
2024/04/14 08:01:30;;;;;;;2.75;1.30;;;19.60;99.90;;;;;;5464535;26;20001;-74
2024/04/14 08:03:56;;;;;;;4.07;1.60;;;19.70;99.90;;;;;;5466473;26;20016;-80
2024/04/14 08:06:21;;;;;;;4.03;1.50;;;19.70;99.90;;;;;;5463839;26;20002;-74
2024/04/14 08:08:47;;;;;;;2.95;1.40;;;19.90;99.90;;;;;;5458504;26;20075;-73
2024/04/14 08:11:13;;;;;;;4.15;1.33;;;20.20;99.90;;;;;;5460398;26;20043;-76
2024/04/14 08:13:38;;;;;;;3.40;1.50;;;20.30;99.90;;;;;;5460205;26;20751;-72
2024/04/14 08:16:04;;;;;;;4.47;1.70;;;20.30;99.90;;;;;;5461075;26;20042;-73
2024/04/14 08:18:30;;;;;;;3.42;1.40;;;20.40;99.90;;;;;;5460406;26;19994;-73
2024/04/14 08:20:58;;;;;;;6.55;1.48;;;20.50;99.90;;;;;;5462991;26;20061;-73
2024/04/14 08:23:23;;;;;;;3.28;1.38;;;20.50;99.90;;;;;;5464152;26;20013;-73
2024/04/14 08:25:49;;;;;;;3.90;1.40;;;20.60;99.90;;;;;;5464051;26;20002;-74
2024/04/14 08:28:14;;;;;;;6.03;1.40;;;20.60;99.90;;;;;;5468698;26;20063;-73
2024/04/14 08:30:40;;;;;;;2.90;1.48;;;20.60;99.90;;;;;;5463442;26;20006;-72
2024/04/14 08:33:05;;;;;;;4.80;1.40;;;20.60;99.90;;;;;;5462893;26;20006;-72
2024/04/14 08:35:31;;;;;;;3.50;1.50;;;20.70;99.90;;;;;;5461952;26;20406;-72
2024/04/14 08:37:56;;;;;;;2.83;1.60;;;20.80;99.90;;;;;;5463889;26;20002;-72
2024/04/14 08:40:22;;;;;;;4.05;1.40;;;20.80;99.90;;;;;;5464149;26;20515;-73
2024/04/14 08:42:47;;;;;;;3.08;1.55;;;20.90;99.90;;;;;;5455487;26;21685;-72
2024/04/14 08:45:16;;;;;;;3.83;1.50;;;21.00;99.90;;;;;;5463156;26;20021;-73
2024/04/14 08:47:42;;;;;;;3.95;1.70;;;21.10;99.90;;;;;;5463415;26;20006;-72
2024/04/14 08:50:09;;;;;;;4.18;1.60;;;21.30;99.90;;;;;;5464121;26;20002;-73
2024/04/14 08:52:37;;;;;;;4.65;1.70;;;21.40;99.90;;;;;;5463862;26;20535;-73
2024/04/14 08:55:04;;;;;;;4.30;1.60;;;21.40;99.90;;;;;;5462324;26;20388;-72
2024/04/14 08:57:31;;;;;;;3.35;1.65;;;21.40;99.90;;;;;;5463826;26;20079;-73
2024/04/14 08:59:58;;;;;;;5.28;1.58;;;21.50;99.90;;;;;;5463681;26;20609;-73
2024/04/14 09:02:24;;;;;;;3.72;1.50;;;21.70;99.90;;;;;;5462814;26;20491;-73
2024/04/14 09:04:51;;;;;;;4.75;1.70;;;21.80;99.90;;;;;;5465104;26;20006;-75
2024/04/14 09:07:17;;;;;;;4.50;1.67;;;22.00;99.90;;;;;;5463503;26;20021;-75
2024/04/14 09:09:42;;;;;;;7.25;1.40;;;22.00;99.90;;;;;;5462270;26;20011;-74
2024/04/14 09:12:11;;;;;;;6.95;1.73;;;22.20;99.90;;;;;;5463984;26;20012;-76
2024/04/14 09:14:36;;;;;;;5.45;1.60;;;22.40;99.90;;;;;;5463151;26;20064;-73
2024/04/14 09:17:02;;;;;;;6.10;1.30;;;22.60;99.90;;;;;;5464511;26;20010;-75
2024/04/14 09:19:28;;;;;;;2.25;1.48;;;22.80;99.90;;;;;;5463488;26;20078;-73
2024/04/14 09:21:53;;;;;;;10.52;1.75;;;22.90;99.90;;;;;;5467513;26;20019;-87
2024/04/14 09:24:19;;;;;;;4.97;1.75;;;23.00;99.90;;;;;;5468792;26;20002;-87
2024/04/14 09:26:45;;;;;;;2.58;1.42;;;23.20;99.90;;;;;;5469193;26;20074;-87
2024/04/14 09:29:10;;;;;;;2.72;1.45;;;23.30;99.90;;;;;;5470002;26;20017;-87
2024/04/14 09:31:36;;;;;;;5.28;1.40;;;23.40;99.90;;;;;;5468947;26;20081;-87
2024/04/14 09:34:05;;;;;;;7.32;1.80;;;23.60;99.90;;;;;;5468491;26;20035;-87
2024/04/14 09:36:30;;;;;;;3.10;1.60;;;23.70;99.90;;;;;;5468729;26;19998;-86
2024/04/14 09:38:58;;;;;;;2.40;1.45;;;23.80;99.90;;;;;;5436642;26;20056;-87
2024/04/14 09:41:24;;;;;;;2.58;1.35;;;23.90;99.90;;;;;;5466733;26;20002;-86
2024/04/14 09:43:51;;;;;;;3.75;1.40;;;24.20;99.90;;;;;;5466095;26;20090;-86
2024/04/14 09:46:21;;;;;;;4.22;2.30;;;24.20;99.90;;;;;;5465546;26;20532;-86
2024/04/14 09:48:47;;;;;;;4.45;1.38;;;24.20;99.90;;;;;;5465610;26;20065;-86
2024/04/14 09:51:17;;;;;;;4.10;1.50;;;24.30;99.90;;;;;;5466342;26;20009;-86
2024/04/14 09:53:46;;;;;;;4.13;1.60;;;24.40;99.90;;;;;;5466880;26;19998;-86
2024/04/14 09:56:12;;;;;;;2.53;1.20;;;24.60;99.90;;;;;;5467120;26;20018;-85
2024/04/14 09:58:37;;;;;;;3.08;1.40;;;24.50;99.90;;;;;;5465058;26;20190;-86
2024/04/14 10:01:08;;;;;;;2.45;1.65;;;24.60;99.90;;;;;;5467685;26;20003;-87
2024/04/14 10:03:36;;;;;;;4.43;1.70;;;24.60;99.90;;;;;;5467355;26;20028;-86
2024/04/14 10:06:02;;;;;;;3.55;1.27;;;24.60;99.90;;;;;;5432217;26;20051;-86
2024/04/14 10:08:32;;;;;;;5.90;1.63;;;24.80;99.90;;;;;;5467266;26;20014;-86
2024/04/14 10:11:00;;;;;;;5.00;1.40;;;25.10;99.90;;;;;;5468153;26;20062;-86
2024/04/14 10:13:26;;;;;;;4.43;1.90;;;25.10;99.90;;;;;;5464020;26;20070;-87
2024/04/14 10:15:59;;;;;;;2.45;1.40;;;25.00;99.90;;;;;;5465632;26;20918;-86
2024/04/14 10:18:29;;;;;;;2.35;1.50;;;25.00;99.90;;;;;;5466469;26;20010;-86
2024/04/14 10:21:01;;;;;;;6.47;1.52;;;25.10;99.90;;;;;;5466711;26;20002;-86
2024/04/14 10:23:26;;;;;;;5.50;1.80;;;25.10;99.90;;;;;;5434261;26;20006;-86
2024/04/14 10:25:52;;;;;;;2.83;1.50;;;25.20;99.90;;;;;;5466907;26;20113;-86
2024/04/14 10:28:18;;;;;;;6.07;1.55;;;25.30;99.90;;;;;;5465743;26;20010;-86
2024/04/14 10:30:45;;;;;;;7.65;1.70;;;25.20;99.90;;;;;;5467077;26;20002;-87
2024/04/14 10:33:23;;;;;;;2.65;1.48;;;25.20;99.90;;;;;;5466886;26;20006;-87
2024/04/14 10:36:03;;;;;;;5.72;1.60;;;25.30;99.90;;;;;;5465062;26;20052;-87
2024/04/14 10:38:33;;;;;;;5.75;2.55;;;25.30;99.90;;;;;;5464676;26;20149;-86
2024/04/14 10:40:59;;;;;;;4.85;1.45;;;25.40;99.90;;;;;;5464537;26;20099;-85
2024/04/14 10:43:25;;;;;;;2.85;1.50;;;25.40;99.90;;;;;;5461892;26;20043;-86
2024/04/14 10:45:52;;;;;;;4.20;1.88;;;25.50;99.90;;;;;;5463697;26;20006;-86
2024/04/14 10:48:17;;;;;;;4.70;1.50;;;25.50;99.90;;;;;;5464209;26;20041;-87
2024/04/14 10:50:43;;;;;;;3.20;1.35;;;25.60;99.90;;;;;;5466706;26;19997;-86
2024/04/14 10:53:09;;;;;;;1.80;1.30;;;25.80;99.90;;;;;;5461794;26;20006;-87
2024/04/14 10:55:35;;;;;;;2.33;1.40;;;25.80;99.90;;;;;;5461411;26;20082;-86
2024/04/14 10:58:01;;;;;;;4.22;1.40;;;25.70;99.90;;;;;;5465776;26;20018;-86
2024/04/14 11:00:27;;;;;;;2.55;1.35;;;25.50;99.90;;;;;;5466435;26;20755;-87
2024/04/14 11:02:53;;;;;;;2.78;1.58;;;25.40;99.90;;;;;;5466565;26;20017;-87
2024/04/14 11:05:22;;;;;;;4.22;1.38;;;25.20;99.90;;;;;;5465441;26;20021;-86
2024/04/14 11:07:48;;;;;;;4.32;1.50;;;25.20;99.90;;;;;;5467018;26;20107;-85
2024/04/14 11:10:15;;;;;;;4.68;1.50;;;25.30;99.90;;;;;;5465435;26;20014;-86
2024/04/14 11:12:42;;;;;;;2.40;1.48;;;25.40;99.90;;;;;;5465508;26;20054;-86
2024/04/14 11:15:09;;;;;;;2.85;1.50;;;25.50;99.90;;;;;;5464390;26;20438;-86
2024/04/14 11:17:35;;;;;;;7.75;1.70;;;25.60;99.90;;;;;;5463412;26;20006;-73
2024/04/14 11:20:01;;;;;;;4.85;1.70;;;25.70;99.90;;;;;;5461469;26;19994;-72
2024/04/14 11:22:26;;;;;;;2.60;1.35;;;25.70;99.90;;;;;;5458169;26;20006;-73
2024/04/14 11:24:52;;;;;;;3.60;1.80;;;25.80;99.90;;;;;;5458049;26;20017;-74
2024/04/14 11:27:18;;;;;;;4.55;1.48;;;26.00;99.90;;;;;;5460003;26;20070;-74
2024/04/14 11:29:44;;;;;;;2.78;1.30;;;26.10;99.90;;;;;;5464011;26;20006;-75
2024/04/14 11:34:58;;;;;;;2.45;1.30;;;26.40;99.90;;;;;;5460679;26;20357;-77
2024/04/14 11:37:23;;;;;;;2.60;1.33;;;26.60;99.90;;;;;;5460336;26;19998;-76
2024/04/14 11:39:50;;;;;;;2.38;1.42;;;26.70;99.90;;;;;;5460233;26;20435;-76
2024/04/14 11:42:17;;;;;;;2.72;1.30;;;27.00;99.90;;;;;;5460459;26;20006;-78
2024/04/14 11:44:43;;;;;;;7.47;1.40;;;27.00;99.90;;;;;;5460472;26;20002;-74
2024/04/14 11:47:09;;;;;;;4.40;1.40;;;26.90;98.50;;;;;;5460681;26;20466;-74
2024/04/14 11:49:34;;;;;;;3.65;1.80;;;26.90;98.50;;;;;;5460571;26;20352;-72
2024/04/14 11:52:00;;;;;;;2.78;1.40;;;26.80;97.80;;;;;;5459596;26;19998;-72
2024/04/14 11:54:25;;;;;;;4.55;1.50;;;26.80;96.50;;;;;;5459858;26;20006;-75
2024/04/14 11:56:52;;;;;;;4.45;1.40;;;26.80;98.10;;;;;;5460275;26;20489;-73
2024/04/14 11:59:19;;;;;;;5.07;1.60;;;26.70;95.20;;;;;;5460565;26;20017;-76
2024/04/14 12:01:45;;;;;;;3.15;1.65;;;26.60;96.80;;;;;;5458583;26;20661;-77
2024/04/14 12:04:11;;;;;;;5.43;1.75;;;26.70;97.10;;;;;;5458995;26;19998;-76
2024/04/14 12:06:37;;;;;;;4.28;1.60;;;26.80;96.50;;;;;;5457766;26;21732;-75
2024/04/14 12:09:02;;;;;;;7.50;1.98;;;26.80;96.10;;;;;;5456608;26;20457;-74
2024/04/14 12:11:28;;;;;;;2.33;1.20;;;27.20;95.80;;;;;;5458201;26;20024;-76
2024/04/14 12:13:53;;;;;;;2.95;1.20;;;27.40;94.80;;;;;;5457338;26;20070;-76
2024/04/14 12:16:19;;;;;;;5.20;1.30;;;27.30;96.00;;;;;;5461600;26;21825;-88
2024/04/14 12:18:45;;;;;;;3.63;1.50;;;27.40;95.60;;;;;;5461102;26;20445;-87
2024/04/14 12:21:11;;;;;;;6.63;1.50;;;27.30;94.80;;;;;;5458659;26;20045;-86
2024/04/14 12:23:37;;;;;;;3.70;1.85;;;27.20;94.80;;;;;;5456146;26;20018;-86
2024/04/14 12:26:03;;;;;;;5.97;1.73;;;27.10;95.20;;;;;;5425800;26;21646;-88
2024/04/14 12:28:28;;;;;;;2.83;1.40;;;27.20;95.10;;;;;;5460026;26;20010;-88
2024/04/14 12:30:54;;;;;;;2.30;1.10;;;27.20;95.30;;;;;;5462921;26;20092;-88
2024/04/14 12:33:19;;;;;;;1.80;1.20;;;27.30;95.10;;;;;;5459222;26;20017;-88
2024/04/14 12:35:45;;;;;;;2.38;1.60;;;27.40;94.70;;;;;;5461082;26;19998;-88
2024/04/14 12:38:10;;;;;;;7.93;1.67;;;27.50;95.50;;;;;;5465678;26;20014;-88
2024/04/14 12:40:38;;;;;;;6.20;1.40;;;27.50;94.20;;;;;;5469100;26;20101;-88
2024/04/14 12:43:03;;;;;;;2.40;1.20;;;27.50;93.40;;;;;;5465894;26;19998;-87
2024/04/14 12:45:29;;;;;;;2.95;1.33;;;27.50;92.60;;;;;;5464732;26;20594;-88